createdAt,value
2022-09-14T00:00:45.298Z,79.86
2022-09-14T00:03:12.068Z,79.84
2022-09-14T00:05:38.841Z,80.03
2022-09-14T00:08:05.482Z,80.12
2022-09-14T00:10:32.382Z,79.82
2022-09-14T00:13:00.618Z,80.16
2022-09-14T00:15:27.307Z,80.25
2022-09-14T00:17:53.992Z,80.07
2022-09-14T00:20:20.759Z,80.01
2022-09-14T00:22:47.389Z,80.05
2022-09-14T00:25:14.048Z,80.26
2022-09-14T00:27:40.681Z,80.11
2022-09-14T00:30:07.868Z,80.30
2022-09-14T00:32:34.514Z,80.44
2022-09-14T00:35:01.223Z,80.19
2022-09-14T00:37:27.969Z,80.23
2022-09-14T00:39:54.955Z,80.28
2022-09-14T00:42:21.668Z,80.34
2022-09-14T00:44:48.275Z,80.63
2022-09-14T00:47:16.940Z,80.60
2022-09-14T00:49:44.161Z,80.83
2022-09-14T00:52:23.201Z,80.82
2022-09-14T00:54:52.814Z,80.85
2022-09-14T00:57:20.569Z,81.13
2022-09-14T00:59:49.920Z,81.13
2022-09-14T01:02:17.047Z,81.24
2022-09-14T01:04:44.242Z,81.12
2022-09-14T01:07:35.977Z,81.51
2022-09-14T01:10:02.590Z,81.27
2022-09-14T01:12:38.301Z,81.12
2022-09-14T01:15:17.164Z,81.06
2022-09-14T01:17:55.910Z,81.51
2022-09-14T01:20:55.259Z,81.53
2022-09-14T01:23:29.996Z,81.28
2022-09-14T01:26:16.902Z,81.39
2022-09-14T01:28:57.369Z,81.70
2022-09-14T01:31:47.203Z,81.81
2022-09-14T01:34:22.265Z,81.80
2022-09-14T01:36:53.810Z,81.74
2022-09-14T01:39:21.974Z,81.67
2022-09-14T01:41:50.186Z,81.95
2022-09-14T01:44:21.955Z,81.74
2022-09-14T01:46:58.094Z,81.57
2022-09-14T01:49:32.295Z,81.83
2022-09-14T01:52:06.468Z,81.65
2022-09-14T01:54:52.998Z,81.79
2022-09-14T01:57:44.157Z,81.78
2022-09-14T02:00:16.587Z,81.99
2022-09-14T02:02:57.330Z,82.18
2022-09-14T02:05:34.587Z,82.54
2022-09-14T02:08:01.373Z,82.56
2022-09-14T02:10:28.617Z,82.24
2022-09-14T02:12:56.925Z,82.27
2022-09-14T02:15:23.956Z,82.30
2022-09-14T02:17:50.607Z,82.20
2022-09-14T02:20:41.258Z,82.23
2022-09-14T02:23:08.383Z,82.38
2022-09-14T02:25:36.481Z,82.17
2022-09-14T02:28:04.884Z,82.44
2022-09-14T02:30:37.569Z,82.35
2022-09-14T02:33:29.384Z,82.37
2022-09-14T02:35:59.362Z,82.51
2022-09-14T02:38:54.616Z,82.42
2022-09-14T02:41:32.673Z,82.19
2022-09-14T02:44:05.205Z,82.77
2022-09-14T02:46:48.215Z,82.53
2022-09-14T02:49:21.489Z,82.69
2022-09-14T02:52:17.502Z,82.78
2022-09-14T02:54:50.663Z,82.55
2022-09-14T02:57:17.290Z,82.85
2022-09-14T02:59:43.994Z,82.69
2022-09-14T03:02:10.719Z,82.60
2022-09-14T03:04:37.484Z,82.83
2022-09-14T03:07:04.161Z,82.80
2022-09-14T03:09:30.841Z,82.80
2022-09-14T03:11:57.469Z,83.08
2022-09-14T03:14:24.113Z,83.08
2022-09-14T03:16:50.819Z,83.11
2022-09-14T03:19:17.717Z,83.35
2022-09-14T03:21:44.401Z,83.56
2022-09-14T03:24:11.162Z,83.49
2022-09-14T03:26:38.742Z,83.39
2022-09-14T03:29:06.468Z,83.69
2022-09-14T03:31:33.899Z,83.83
2022-09-14T03:34:01.715Z,83.97
2022-09-14T03:36:30.118Z,83.57
2022-09-14T03:38:58.317Z,83.90
2022-09-14T03:41:25.337Z,83.98
2022-09-14T03:43:52.251Z,83.86
2022-09-14T03:46:21.588Z,83.72
2022-09-14T03:48:49.173Z,84.05
2022-09-14T03:51:16.104Z,83.76
2022-09-14T03:53:44.916Z,84.21
2022-09-14T03:56:17.084Z,84.00
2022-09-14T03:58:45.084Z,83.92
2022-09-14T04:01:14.694Z,84.14
2022-09-14T04:03:41.718Z,84.12
2022-09-14T04:06:09.365Z,84.28
2022-09-14T04:08:38.390Z,84.35
2022-09-14T04:11:17.352Z,84.49
2022-09-14T04:13:44.587Z,84.56
2022-09-14T04:16:11.993Z,84.83
2022-09-14T04:18:38.893Z,84.45
2022-09-14T04:21:13.241Z,84.59
2022-09-14T04:24:03.023Z,84.84
2022-09-14T04:26:28.137Z,84.66
2022-09-14T04:28:58.529Z,84.85
2022-09-14T04:31:25.472Z,84.92
2022-09-14T04:33:53.831Z,84.78
2022-09-14T04:36:22.666Z,84.86
2022-09-14T04:38:53.111Z,84.99
2022-09-14T04:41:21.221Z,84.78
2022-09-14T04:43:50.535Z,85.06
2022-09-14T04:46:19.792Z,85.26
2022-09-14T04:48:46.529Z,85.23
2022-09-14T04:51:18.762Z,85.08
2022-09-14T04:53:47.340Z,85.26
2022-09-14T04:56:14.662Z,85.28
2022-09-14T04:58:51.250Z,85.37
2022-09-14T05:01:20.973Z,85.21
2022-09-14T05:03:48.331Z,85.12
2022-09-14T05:06:17.045Z,85.35
2022-09-14T05:08:44.293Z,84.91
2022-09-14T05:11:14.449Z,84.89
2022-09-14T05:13:42.102Z,85.23
2022-09-14T05:16:15.202Z,85.18
2022-09-14T05:18:42.278Z,85.37
2022-09-14T05:21:10.725Z,85.49
2022-09-14T05:23:37.981Z,85.55
2022-09-14T05:26:05.688Z,85.25
2022-09-14T05:28:33.518Z,85.23
2022-09-14T05:31:04.895Z,85.14
2022-09-14T05:33:31.666Z,85.45
2022-09-14T05:36:02.716Z,85.55
2022-09-14T05:38:30.627Z,85.56
2022-09-14T05:40:57.644Z,85.44
2022-09-14T05:43:24.477Z,85.39
2022-09-14T05:45:51.373Z,85.54
2022-09-14T05:48:18.401Z,85.48
2022-09-14T05:50:45.175Z,85.85
2022-09-14T05:53:11.816Z,85.56
2022-09-14T05:55:38.471Z,85.47
2022-09-14T05:58:07.647Z,85.33
2022-09-14T06:00:34.305Z,85.36
2022-09-14T06:03:00.964Z,85.43
2022-09-14T06:05:28.317Z,85.48
2022-09-14T06:07:55.102Z,85.48
2022-09-14T06:10:22.151Z,85.19
2022-09-14T06:12:53.460Z,85.07
2022-09-14T06:15:24.739Z,85.38
2022-09-14T06:17:51.522Z,85.05
2022-09-14T06:20:18.981Z,85.17
2022-09-14T06:22:48.095Z,84.89
2022-09-14T06:25:14.877Z,84.59
2022-09-14T06:27:41.547Z,84.57
2022-09-14T06:30:08.986Z,84.06
2022-09-14T06:32:35.740Z,83.96
2022-09-14T06:35:11.768Z,83.90
2022-09-14T06:37:42.521Z,83.60
2022-09-14T06:40:12.270Z,83.79
2022-09-14T06:42:41.508Z,83.38
2022-09-14T06:45:14.635Z,83.37
2022-09-14T06:47:49.932Z,83.24
2022-09-14T06:50:17.680Z,82.97
2022-09-14T06:52:44.722Z,82.99
2022-09-14T06:55:12.032Z,82.83
2022-09-14T06:57:42.785Z,82.70
2022-09-14T07:00:10.518Z,82.71
2022-09-14T07:02:37.260Z,82.49
2022-09-14T07:05:04.309Z,82.13
2022-09-14T07:07:31.097Z,82.01
2022-09-14T07:09:57.954Z,81.89
2022-09-14T07:12:28.158Z,81.43
2022-09-14T07:14:54.834Z,81.45
2022-09-14T07:17:21.591Z,81.45
2022-09-14T07:19:48.299Z,81.69
2022-09-14T07:22:15.111Z,81.41
2022-09-14T07:24:41.871Z,81.14
2022-09-14T07:27:08.912Z,80.92
2022-09-14T07:29:35.794Z,80.71
2022-09-14T07:32:02.645Z,80.64
2022-09-14T07:34:29.277Z,80.63
2022-09-14T07:36:55.892Z,80.50
2022-09-14T07:39:22.524Z,80.52
2022-09-14T07:41:49.558Z,80.03
2022-09-14T07:44:17.539Z,79.74
2022-09-14T07:46:45.559Z,79.30
2022-09-14T07:49:12.822Z,79.23
2022-09-14T07:51:40.257Z,78.51
2022-09-14T07:54:08.714Z,77.94
2022-09-14T07:56:37.544Z,77.67
2022-09-14T07:59:33.367Z,77.37
2022-09-14T08:01:51.815Z,76.78
2022-09-14T08:04:18.718Z,76.77
2022-09-14T08:06:45.304Z,76.97
2022-09-14T08:09:12.329Z,76.52
2022-09-14T08:11:39.106Z,76.71
2022-09-14T08:14:09.951Z,76.69
2022-09-14T08:16:38.691Z,76.34
2022-09-14T08:19:08.354Z,76.12
2022-09-14T08:21:35.834Z,76.15
2022-09-14T08:24:04.401Z,76.12
2022-09-14T08:26:31.482Z,76.09
2022-09-14T08:29:00.551Z,75.86
2022-09-14T08:31:28.273Z,75.62
2022-09-14T08:34:00.368Z,74.76
2022-09-14T08:36:31.287Z,73.95
2022-09-14T08:38:58.259Z,73.71
2022-09-14T08:41:51.354Z,73.17
2022-09-14T08:44:25.899Z,72.80
2022-09-14T08:47:03.941Z,72.15
2022-09-14T08:49:39.115Z,72.09
2022-09-14T08:52:23.041Z,71.73
2022-09-14T08:54:53.288Z,71.61
2022-09-14T08:57:26.230Z,71.26
2022-09-14T09:00:15.531Z,70.87
2022-09-14T09:03:13.809Z,70.61
2022-09-14T09:05:49.406Z,70.27
2022-09-14T09:08:30.571Z,69.58
2022-09-14T09:10:59.242Z,69.38
2022-09-14T09:13:30.470Z,69.25
2022-09-14T09:16:02.806Z,69.05
2022-09-14T09:18:48.350Z,69.02
2022-09-14T09:21:23.033Z,68.71
2022-09-14T09:23:49.868Z,68.63
2022-09-14T09:26:25.736Z,68.31
2022-09-14T09:28:54.307Z,68.06
2022-09-14T09:31:33.307Z,68.05
2022-09-14T09:34:27.237Z,68.02
2022-09-14T09:37:09.568Z,67.70
2022-09-14T09:39:36.511Z,67.13
2022-09-14T09:42:08.455Z,66.79
2022-09-14T09:45:04.280Z,66.51
2022-09-14T09:47:40.386Z,66.32
2022-09-14T09:50:18.481Z,65.52
2022-09-14T09:52:59.100Z,65.50
2022-09-14T09:55:33.596Z,65.34
2022-09-14T09:58:21.826Z,64.32
2022-09-14T10:00:57.268Z,64.30
2022-09-14T10:03:36.182Z,63.88
2022-09-14T10:06:05.807Z,64.08
2022-09-14T10:08:35.072Z,63.52
2022-09-14T10:11:03.232Z,63.17
2022-09-14T10:13:38.224Z,63.47
2022-09-14T10:16:12.529Z,63.02
2022-09-14T10:18:48.681Z,63.20
2022-09-14T10:21:17.764Z,61.72
2022-09-14T10:23:44.939Z,61.91
2022-09-14T10:26:14.781Z,61.80
2022-09-14T10:28:46.547Z,61.31
2022-09-14T10:31:17.912Z,60.91
2022-09-14T10:33:52.029Z,59.91
2022-09-14T10:36:43.899Z,59.57
2022-09-14T10:39:10.706Z,59.89
2022-09-14T10:41:53.094Z,59.50
2022-09-14T10:44:28.908Z,60.16
2022-09-14T10:47:19.907Z,59.73
2022-09-14T10:50:08.729Z,59.63
2022-09-14T10:53:17.336Z,60.12
2022-09-14T10:56:01.237Z,59.86
2022-09-14T10:58:40.183Z,59.94
2022-09-14T11:01:19.571Z,60.03
2022-09-14T11:04:14.351Z,59.96
2022-09-14T11:06:57.950Z,59.30
2022-09-14T11:09:32.389Z,59.80
2022-09-14T11:12:09.059Z,59.76
2022-09-14T11:14:57.386Z,60.12
2022-09-14T11:17:49.919Z,59.53
2022-09-14T11:20:30.699Z,58.94
2022-09-14T11:23:07.582Z,58.37
2022-09-14T11:25:45.997Z,58.96
2022-09-14T11:28:25.692Z,58.81
2022-09-14T11:31:06.698Z,57.79
2022-09-14T11:33:38.332Z,57.21
2022-09-14T11:36:10.111Z,56.97
2022-09-14T11:38:44.482Z,56.92
2022-09-14T11:41:58.686Z,56.35
2022-09-14T11:44:32.284Z,56.77
2022-09-14T11:47:05.597Z,56.80
2022-09-14T11:49:58.788Z,56.71
2022-09-14T11:52:28.289Z,55.58
2022-09-14T11:54:55.136Z,55.59
2022-09-14T11:57:40.145Z,55.79
2022-09-14T12:00:23.218Z,55.50
2022-09-14T12:03:01.293Z,55.80
2022-09-14T12:05:30.774Z,55.62
2022-09-14T12:08:02.146Z,55.76
2022-09-14T12:10:29.767Z,56.28
2022-09-14T12:13:08.655Z,56.01
2022-09-14T12:15:39.559Z,55.88
2022-09-14T12:18:06.202Z,56.23
2022-09-14T12:20:40.432Z,55.37
2022-09-14T12:23:18.591Z,56.15
2022-09-14T12:26:01.642Z,56.36
2022-09-14T12:28:40.683Z,56.43
2022-09-14T12:31:36.309Z,57.28
2022-09-14T12:34:14.355Z,57.10
2022-09-14T12:36:40.936Z,57.13
2022-09-14T12:39:20.595Z,57.56
2022-09-14T12:41:47.763Z,57.83
2022-09-14T12:44:35.829Z,57.95
2022-09-14T12:47:38.167Z,57.60
2022-09-14T12:50:20.259Z,57.32
2022-09-14T12:52:58.994Z,57.29
2022-09-14T12:55:43.231Z,58.12
2022-09-14T12:58:23.355Z,57.51
2022-09-14T13:01:00.476Z,57.22
2022-09-14T13:03:50.569Z,56.92
2022-09-14T13:06:18.167Z,56.44
2022-09-14T13:08:57.757Z,56.46
2022-09-14T13:11:30.306Z,56.76
2022-09-14T13:13:57.443Z,55.93
2022-09-14T13:16:37.495Z,55.34
2022-09-14T13:19:08.075Z,54.77
2022-09-14T13:21:46.728Z,54.71
2022-09-14T13:24:22.715Z,55.04
2022-09-14T13:26:49.847Z,54.80
2022-09-14T13:29:16.580Z,55.38
2022-09-14T13:31:44.988Z,55.24
2022-09-14T13:34:43.320Z,55.73
2022-09-14T13:37:13.691Z,55.87
2022-09-14T13:39:43.455Z,56.07
2022-09-14T13:42:13.490Z,55.84
2022-09-14T13:44:49.186Z,56.31
2022-09-14T13:47:24.425Z,56.57
2022-09-14T13:49:53.363Z,57.21
2022-09-14T13:52:25.932Z,57.28
2022-09-14T13:55:24.383Z,56.94
2022-09-14T13:58:09.390Z,57.35
2022-09-14T14:01:06.178Z,57.35
2022-09-14T14:04:02.375Z,57.41
2022-09-14T14:06:38.332Z,57.71
2022-09-14T14:09:07.342Z,57.59
2022-09-14T14:11:42.815Z,57.83
2022-09-14T14:14:21.573Z,58.25
2022-09-14T14:17:13.411Z,57.74
2022-09-14T14:19:40.809Z,58.30
2022-09-14T14:22:30.304Z,58.25
2022-09-14T14:25:14.512Z,58.53
2022-09-14T14:27:57.720Z,58.59
2022-09-14T14:30:38.190Z,58.28
2022-09-14T14:33:06.828Z,58.24
2022-09-14T14:35:33.741Z,58.64
2022-09-14T14:38:00.450Z,58.80
2022-09-14T14:40:33.420Z,58.85
2022-09-14T14:43:02.890Z,59.20
2022-09-14T14:45:35.380Z,58.80
2022-09-14T14:48:03.533Z,59.19
2022-09-14T14:50:34.479Z,59.38
2022-09-14T14:53:01.928Z,59.74
2022-09-14T14:55:31.321Z,59.64
2022-09-14T14:58:01.103Z,59.87
2022-09-14T15:00:30.361Z,60.06
2022-09-14T15:02:57.061Z,59.97
2022-09-14T15:05:24.851Z,60.30
2022-09-14T15:07:56.108Z,60.43
2022-09-14T15:10:24.835Z,60.48
2022-09-14T15:12:52.505Z,60.83
2022-09-14T15:15:21.751Z,60.58
2022-09-14T15:17:48.416Z,60.69
2022-09-14T15:20:15.540Z,60.56
2022-09-14T15:22:42.864Z,60.93
2022-09-14T15:25:11.056Z,60.87
2022-09-14T15:27:37.892Z,60.74
2022-09-14T15:30:06.031Z,60.73
2022-09-14T15:32:32.651Z,60.83
2022-09-14T15:34:59.337Z,60.84
2022-09-14T15:37:26.148Z,60.70
2022-09-14T15:39:52.950Z,60.77
2022-09-14T15:42:20.218Z,60.78
2022-09-14T15:44:47.187Z,60.92
2022-09-14T15:47:14.812Z,61.11
2022-09-14T15:49:42.581Z,61.14
2022-09-14T15:52:10.992Z,60.79
2022-09-14T15:54:38.858Z,61.14
2022-09-14T15:57:08.175Z,60.98
2022-09-14T15:59:35.318Z,61.32
2022-09-14T16:02:02.293Z,61.07
2022-09-14T16:04:30.584Z,61.45
2022-09-14T16:06:57.233Z,61.58
2022-09-14T16:09:24.020Z,61.56
2022-09-14T16:11:50.774Z,61.93
2022-09-14T16:14:17.518Z,62.07
2022-09-14T16:16:44.597Z,62.19
2022-09-14T16:19:13.668Z,62.27
2022-09-14T16:21:44.228Z,62.67
2022-09-14T16:24:20.012Z,62.29
2022-09-14T16:26:47.318Z,62.42
2022-09-14T16:29:15.784Z,62.48
2022-09-14T16:31:44.643Z,62.46
2022-09-14T16:34:18.829Z,62.35
2022-09-14T16:36:46.347Z,62.39
2022-09-14T16:39:18.251Z,62.84
2022-09-14T16:41:45.337Z,62.82
2022-09-14T16:44:16.725Z,62.82
2022-09-14T16:46:44.294Z,63.25
2022-09-14T16:49:13.802Z,63.29
2022-09-14T16:51:40.941Z,63.51
2022-09-14T16:54:08.247Z,63.84
2022-09-14T16:56:37.191Z,63.91
2022-09-14T16:59:05.119Z,63.50
2022-09-14T17:01:37.999Z,64.17
2022-09-14T17:04:13.404Z,64.41
2022-09-14T17:06:44.836Z,64.64
2022-09-14T17:09:17.547Z,64.25
2022-09-14T17:11:45.388Z,64.56
2022-09-14T17:14:20.124Z,64.61
2022-09-14T17:16:53.655Z,64.90
2022-09-14T17:19:27.282Z,64.85
2022-09-14T17:21:54.979Z,64.93
2022-09-14T17:24:22.643Z,65.28
2022-09-14T17:26:51.201Z,65.19
2022-09-14T17:29:21.782Z,65.09
2022-09-14T17:31:50.774Z,65.21
2022-09-14T17:34:23.016Z,64.96
2022-09-14T17:36:53.238Z,65.39
2022-09-14T17:39:26.375Z,65.67
2022-09-14T17:42:00.895Z,65.50
2022-09-14T17:44:33.382Z,65.88
2022-09-14T17:47:00.864Z,65.96
2022-09-14T17:49:28.105Z,66.33
2022-09-14T17:51:55.267Z,66.39
2022-09-14T17:54:22.135Z,66.53
2022-09-14T17:56:51.585Z,66.73
2022-09-14T17:59:24.454Z,66.93
2022-09-14T18:01:57.705Z,66.99
2022-09-14T18:04:27.208Z,67.13
2022-09-14T18:06:59.389Z,66.97
2022-09-14T18:09:26.470Z,67.01
2022-09-14T18:11:56.164Z,67.36
2022-09-14T18:14:23.674Z,67.00
2022-09-14T18:16:50.389Z,67.50
2022-09-14T18:19:17.029Z,67.45
2022-09-14T18:21:45.123Z,67.65
